sensor_id;sensor_type;location;lat;lon;timestamp;temperature;humidity
5226;DHT22;2632;51.666;7.146;2022-07-30T00:01:50;17.40;92.10
5226;DHT22;2632;51.666;7.146;2022-07-30T00:04:17;17.30;92.30
5226;DHT22;2632;51.666;7.146;2022-07-30T00:06:44;17.30;92.10
5226;DHT22;2632;51.666;7.146;2022-07-30T00:09:10;17.30;92.30
5226;DHT22;2632;51.666;7.146;2022-07-30T00:11:37;17.20;92.30
5226;DHT22;2632;51.666;7.146;2022-07-30T00:14:04;17.20;92.00
5226;DHT22;2632;51.666;7.146;2022-07-30T00:16:30;17.20;92.20
5226;DHT22;2632;51.666;7.146;2022-07-30T00:18:57;17.20;92.30
5226;DHT22;2632;51.666;7.146;2022-07-30T00:21:24;17.20;92.60
5226;DHT22;2632;51.666;7.146;2022-07-30T00:24:04;17.20;92.30
5226;DHT22;2632;51.666;7.146;2022-07-30T00:26:31;17.10;92.50
5226;DHT22;2632;51.666;7.146;2022-07-30T00:28:58;17.10;92.30
5226;DHT22;2632;51.666;7.146;2022-07-30T00:31:25;17.00;92.30
5226;DHT22;2632;51.666;7.146;2022-07-30T00:33:51;16.90;92.40
5226;DHT22;2632;51.666;7.146;2022-07-30T00:36:18;16.90;92.60
5226;DHT22;2632;51.666;7.146;2022-07-30T00:38:45;16.80;92.60
5226;DHT22;2632;51.666;7.146;2022-07-30T00:41:11;16.80;92.70
5226;DHT22;2632;51.666;7.146;2022-07-30T00:43:41;16.80;92.90
5226;DHT22;2632;51.666;7.146;2022-07-30T00:46:08;16.80;93.00
5226;DHT22;2632;51.666;7.146;2022-07-30T00:48:35;16.80;93.10
5226;DHT22;2632;51.666;7.146;2022-07-30T00:51:01;16.70;92.60
5226;DHT22;2632;51.666;7.146;2022-07-30T00:53:28;16.70;92.90
5226;DHT22;2632;51.666;7.146;2022-07-30T00:55:55;16.80;92.50
5226;DHT22;2632;51.666;7.146;2022-07-30T01:00:49;16.70;92.70
5226;DHT22;2632;51.666;7.146;2022-07-30T01:03:15;16.60;92.80
5226;DHT22;2632;51.666;7.146;2022-07-30T01:05:42;16.60;93.00
5226;DHT22;2632;51.666;7.146;2022-07-30T01:08:09;16.60;93.20
5226;DHT22;2632;51.666;7.146;2022-07-30T01:10:35;16.50;93.30
5226;DHT22;2632;51.666;7.146;2022-07-30T01:13:03;16.40;93.40
5226;DHT22;2632;51.666;7.146;2022-07-30T01:15:30;16.40;93.00
5226;DHT22;2632;51.666;7.146;2022-07-30T01:18:00;16.40;93.30
5226;DHT22;2632;51.666;7.146;2022-07-30T01:20:59;16.40;93.00
5226;DHT22;2632;51.666;7.146;2022-07-30T01:23:34;16.40;93.30
5226;DHT22;2632;51.666;7.146;2022-07-30T01:29:51;16.20;93.10
5226;DHT22;2632;51.666;7.146;2022-07-30T01:32:21;16.10;93.20
5226;DHT22;2632;51.666;7.146;2022-07-30T01:34:49;16.10;93.40
5226;DHT22;2632;51.666;7.146;2022-07-30T01:37:17;16.10;93.20
5226;DHT22;2632;51.666;7.146;2022-07-30T01:39:47;16.10;93.10
5226;DHT22;2632;51.666;7.146;2022-07-30T01:42:15;16.10;93.30
5226;DHT22;2632;51.666;7.146;2022-07-30T01:44:43;16.00;93.40
5226;DHT22;2632;51.666;7.146;2022-07-30T01:47:11;16.00;93.60
5226;DHT22;2632;51.666;7.146;2022-07-30T01:49:39;16.00;93.40
5226;DHT22;2632;51.666;7.146;2022-07-30T01:52:07;16.00;93.30
5226;DHT22;2632;51.666;7.146;2022-07-30T01:54:36;16.00;93.30
5226;DHT22;2632;51.666;7.146;2022-07-30T01:57:05;15.90;93.20
5226;DHT22;2632;51.666;7.146;2022-07-30T01:59:34;15.90;93.50
5226;DHT22;2632;51.666;7.146;2022-07-30T02:04:29;15.90;93.00
5226;DHT22;2632;51.666;7.146;2022-07-30T02:07:09;15.80;93.40
5226;DHT22;2632;51.666;7.146;2022-07-30T02:09:45;15.80;93.40
5226;DHT22;2632;51.666;7.146;2022-07-30T02:12:16;15.80;93.60
5226;DHT22;2632;51.666;7.146;2022-07-30T02:17:30;15.90;93.50
5226;DHT22;2632;51.666;7.146;2022-07-30T02:20:10;15.80;93.60
5226;DHT22;2632;51.666;7.146;2022-07-30T02:22:41;15.70;93.60
5226;DHT22;2632;51.666;7.146;2022-07-30T02:25:09;15.70;93.50
5226;DHT22;2632;51.666;7.146;2022-07-30T02:27:39;15.60;93.70
5226;DHT22;2632;51.666;7.146;2022-07-30T02:30:08;15.70;93.50
5226;DHT22;2632;51.666;7.146;2022-07-30T02:32:37;15.70;93.50
5226;DHT22;2632;51.666;7.146;2022-07-30T02:35:14;15.60;93.80
5226;DHT22;2632;51.666;7.146;2022-07-30T02:37:44;15.70;93.90
5226;DHT22;2632;51.666;7.146;2022-07-30T02:40:15;15.80;93.40
5226;DHT22;2632;51.666;7.146;2022-07-30T02:42:45;15.80;93.60
5226;DHT22;2632;51.666;7.146;2022-07-30T02:45:15;15.80;93.40
5226;DHT22;2632;51.666;7.146;2022-07-30T02:47:45;15.70;93.30
5226;DHT22;2632;51.666;7.146;2022-07-30T02:50:13;15.70;93.80
5226;DHT22;2632;51.666;7.146;2022-07-30T02:52:41;15.70;93.70
5226;DHT22;2632;51.666;7.146;2022-07-30T02:55:08;15.70;93.60
5226;DHT22;2632;51.666;7.146;2022-07-30T02:57:39;15.70;93.30
5226;DHT22;2632;51.666;7.146;2022-07-30T03:00:10;15.70;93.60
5226;DHT22;2632;51.666;7.146;2022-07-30T03:02:38;15.70;93.80
5226;DHT22;2632;51.666;7.146;2022-07-30T03:05:09;15.70;93.70
5226;DHT22;2632;51.666;7.146;2022-07-30T03:07:38;15.70;93.80
5226;DHT22;2632;51.666;7.146;2022-07-30T03:10:06;15.70;93.90
5226;DHT22;2632;51.666;7.146;2022-07-30T03:12:34;15.80;93.90
5226;DHT22;2632;51.666;7.146;2022-07-30T03:15:02;15.90;93.20
5226;DHT22;2632;51.666;7.146;2022-07-30T03:17:34;15.90;93.40
5226;DHT22;2632;51.666;7.146;2022-07-30T03:20:06;15.90;93.70
5226;DHT22;2632;51.666;7.146;2022-07-30T03:22:41;15.90;93.30
5226;DHT22;2632;51.666;7.146;2022-07-30T03:25:09;15.90;93.60
5226;DHT22;2632;51.666;7.146;2022-07-30T03:27:38;15.80;93.60
5226;DHT22;2632;51.666;7.146;2022-07-30T03:30:06;15.80;93.80
5226;DHT22;2632;51.666;7.146;2022-07-30T03:32:34;15.80;93.50
5226;DHT22;2632;51.666;7.146;2022-07-30T03:35:02;15.80;93.50
5226;DHT22;2632;51.666;7.146;2022-07-30T03:37:38;15.80;93.70
5226;DHT22;2632;51.666;7.146;2022-07-30T03:40:06;15.80;93.50
5226;DHT22;2632;51.666;7.146;2022-07-30T03:42:34;15.80;93.70
5226;DHT22;2632;51.666;7.146;2022-07-30T03:45:03;15.70;93.60
5226;DHT22;2632;51.666;7.146;2022-07-30T03:47:36;15.70;93.80
5226;DHT22;2632;51.666;7.146;2022-07-30T03:50:04;15.70;93.90
5226;DHT22;2632;51.666;7.146;2022-07-30T03:52:33;15.70;93.60
5226;DHT22;2632;51.666;7.146;2022-07-30T03:55:03;15.70;94.00
5226;DHT22;2632;51.666;7.146;2022-07-30T03:57:30;15.60;93.90
5226;DHT22;2632;51.666;7.146;2022-07-30T03:59:57;15.80;93.80
5226;DHT22;2632;51.666;7.146;2022-07-30T04:02:24;15.70;93.90
5226;DHT22;2632;51.666;7.146;2022-07-30T04:04:51;15.70;94.10
5226;DHT22;2632;51.666;7.146;2022-07-30T04:07:17;15.60;93.70
5226;DHT22;2632;51.666;7.146;2022-07-30T04:09:44;15.60;93.90
5226;DHT22;2632;51.666;7.146;2022-07-30T04:12:10;15.60;94.00
5226;DHT22;2632;51.666;7.146;2022-07-30T04:14:41;15.60;94.00
5226;DHT22;2632;51.666;7.146;2022-07-30T04:17:16;15.60;93.90
5226;DHT22;2632;51.666;7.146;2022-07-30T04:19:48;15.50;93.80
5226;DHT22;2632;51.666;7.146;2022-07-30T04:22:19;15.50;94.00
5226;DHT22;2632;51.666;7.146;2022-07-30T04:24:48;15.40;94.00
5226;DHT22;2632;51.666;7.146;2022-07-30T04:27:17;15.40;94.30
5226;DHT22;2632;51.666;7.146;2022-07-30T04:29:44;15.40;94.30
5226;DHT22;2632;51.666;7.146;2022-07-30T04:32:11;15.40;94.40
5226;DHT22;2632;51.666;7.146;2022-07-30T04:34:53;15.50;94.20
5226;DHT22;2632;51.666;7.146;2022-07-30T04:37:23;15.60;93.90
5226;DHT22;2632;51.666;7.146;2022-07-30T04:39:51;15.60;94.10
5226;DHT22;2632;51.666;7.146;2022-07-30T04:42:20;15.80;94.60
5226;DHT22;2632;51.666;7.146;2022-07-30T04:44:47;16.00;95.10
5226;DHT22;2632;51.666;7.146;2022-07-30T04:47:16;15.90;95.30
5226;DHT22;2632;51.666;7.146;2022-07-30T04:49:43;16.20;95.50
5226;DHT22;2632;51.666;7.146;2022-07-30T04:52:11;17.10;92.50
5226;DHT22;2632;51.666;7.146;2022-07-30T04:54:44;17.10;92.60
5226;DHT22;2632;51.666;7.146;2022-07-30T04:57:12;17.40;92.20
5226;DHT22;2632;51.666;7.146;2022-07-30T04:59:41;17.40;92.30
5226;DHT22;2632;51.666;7.146;2022-07-30T05:02:08;17.30;92.60
5226;DHT22;2632;51.666;7.146;2022-07-30T05:04:37;17.60;91.90
5226;DHT22;2632;51.666;7.146;2022-07-30T05:07:06;17.30;93.00
5226;DHT22;2632;51.666;7.146;2022-07-30T05:09:33;17.20;93.40
5226;DHT22;2632;51.666;7.146;2022-07-30T05:12:00;16.90;93.90
5226;DHT22;2632;51.666;7.146;2022-07-30T05:14:26;16.90;93.40
5226;DHT22;2632;51.666;7.146;2022-07-30T05:16:54;17.30;93.00
5226;DHT22;2632;51.666;7.146;2022-07-30T05:19:21;17.30;92.90
5226;DHT22;2632;51.666;7.146;2022-07-30T05:21:48;17.70;91.60
5226;DHT22;2632;51.666;7.146;2022-07-30T05:24:15;17.60;92.70
5226;DHT22;2632;51.666;7.146;2022-07-30T05:26:42;17.60;92.10
5226;DHT22;2632;51.666;7.146;2022-07-30T05:29:09;17.60;92.50
5226;DHT22;2632;51.666;7.146;2022-07-30T05:31:45;17.50;92.60
5226;DHT22;2632;51.666;7.146;2022-07-30T05:34:12;17.70;92.00
5226;DHT22;2632;51.666;7.146;2022-07-30T05:36:39;17.70;92.20
5226;DHT22;2632;51.666;7.146;2022-07-30T05:39:05;18.00;91.10
5226;DHT22;2632;51.666;7.146;2022-07-30T05:41:32;18.10;91.90
5226;DHT22;2632;51.666;7.146;2022-07-30T05:44:00;17.80;92.40
5226;DHT22;2632;51.666;7.146;2022-07-30T05:46:27;18.10;91.40
5226;DHT22;2632;51.666;7.146;2022-07-30T05:48:54;18.20;91.60
5226;DHT22;2632;51.666;7.146;2022-07-30T05:51:21;18.20;91.90
5226;DHT22;2632;51.666;7.146;2022-07-30T05:53:48;18.20;91.00
5226;DHT22;2632;51.666;7.146;2022-07-30T05:56:15;18.40;90.50
5226;DHT22;2632;51.666;7.146;2022-07-30T05:58:41;18.40;90.80
5226;DHT22;2632;51.666;7.146;2022-07-30T06:03:37;18.20;91.90
5226;DHT22;2632;51.666;7.146;2022-07-30T06:06:04;18.30;91.00
5226;DHT22;2632;51.666;7.146;2022-07-30T06:08:31;18.50;90.30
5226;DHT22;2632;51.666;7.146;2022-07-30T06:10:58;18.50;90.30
5226;DHT22;2632;51.666;7.146;2022-07-30T06:13:25;18.60;90.30
5226;DHT22;2632;51.666;7.146;2022-07-30T06:15:51;18.40;91.00
5226;DHT22;2632;51.666;7.146;2022-07-30T06:18:18;18.50;90.90
5226;DHT22;2632;51.666;7.146;2022-07-30T06:20:49;18.50;91.60
5226;DHT22;2632;51.666;7.146;2022-07-30T06:23:17;18.50;90.90
5226;DHT22;2632;51.666;7.146;2022-07-30T06:28:11;18.40;91.70
5226;DHT22;2632;51.666;7.146;2022-07-30T06:30:57;18.40;91.60
5226;DHT22;2632;51.666;7.146;2022-07-30T06:33:24;18.50;91.20
5226;DHT22;2632;51.666;7.146;2022-07-30T06:35:50;18.30;92.30
5226;DHT22;2632;51.666;7.146;2022-07-30T06:38:17;18.30;92.30
5226;DHT22;2632;51.666;7.146;2022-07-30T06:40:44;18.60;91.20
5226;DHT22;2632;51.666;7.146;2022-07-30T06:43:10;18.50;91.80
5226;DHT22;2632;51.666;7.146;2022-07-30T06:45:37;18.60;90.90
5226;DHT22;2632;51.666;7.146;2022-07-30T06:48:05;18.60;91.30
5226;DHT22;2632;51.666;7.146;2022-07-30T06:50:31;18.60;91.40
5226;DHT22;2632;51.666;7.146;2022-07-30T06:52:58;18.60;91.20
5226;DHT22;2632;51.666;7.146;2022-07-30T06:55:25;18.70;91.10
5226;DHT22;2632;51.666;7.146;2022-07-30T06:57:51;18.80;91.20
5226;DHT22;2632;51.666;7.146;2022-07-30T07:00:18;18.90;91.10
5226;DHT22;2632;51.666;7.146;2022-07-30T07:02:46;18.90;90.50
5226;DHT22;2632;51.666;7.146;2022-07-30T07:05:12;19.00;90.60
5226;DHT22;2632;51.666;7.146;2022-07-30T07:07:39;18.90;91.10
5226;DHT22;2632;51.666;7.146;2022-07-30T07:10:17;18.80;92.40
5226;DHT22;2632;51.666;7.146;2022-07-30T07:12:44;18.90;90.60
5226;DHT22;2632;51.666;7.146;2022-07-30T07:15:11;19.10;90.70
5226;DHT22;2632;51.666;7.146;2022-07-30T07:17:37;19.10;90.50
5226;DHT22;2632;51.666;7.146;2022-07-30T07:20:06;19.20;90.90
5226;DHT22;2632;51.666;7.146;2022-07-30T07:22:32;19.10;90.60
5226;DHT22;2632;51.666;7.146;2022-07-30T07:24:59;19.20;90.70
5226;DHT22;2632;51.666;7.146;2022-07-30T07:27:26;19.20;91.10
5226;DHT22;2632;51.666;7.146;2022-07-30T07:29:52;19.20;90.30
5226;DHT22;2632;51.666;7.146;2022-07-30T07:32:32;19.20;91.30
5226;DHT22;2632;51.666;7.146;2022-07-30T07:34:59;19.20;89.80
5226;DHT22;2632;51.666;7.146;2022-07-30T07:37:25;19.50;88.40
5226;DHT22;2632;51.666;7.146;2022-07-30T07:39:52;19.50;89.50
5226;DHT22;2632;51.666;7.146;2022-07-30T07:42:19;19.40;90.30
5226;DHT22;2632;51.666;7.146;2022-07-30T07:44:45;19.40;89.20
5226;DHT22;2632;51.666;7.146;2022-07-30T07:47:13;19.40;90.40
5226;DHT22;2632;51.666;7.146;2022-07-30T07:49:40;19.50;88.70
5226;DHT22;2632;51.666;7.146;2022-07-30T07:52:06;19.60;88.00
5226;DHT22;2632;51.666;7.146;2022-07-30T07:54:33;19.60;88.50
5226;DHT22;2632;51.666;7.146;2022-07-30T07:57:00;19.60;87.90
5226;DHT22;2632;51.666;7.146;2022-07-30T07:59:30;19.40;90.00
5226;DHT22;2632;51.666;7.146;2022-07-30T08:02:06;19.40;90.00
5226;DHT22;2632;51.666;7.146;2022-07-30T08:04:34;19.50;90.20
5226;DHT22;2632;51.666;7.146;2022-07-30T08:07:00;19.50;90.50
5226;DHT22;2632;51.666;7.146;2022-07-30T08:09:28;19.40;90.30
5226;DHT22;2632;51.666;7.146;2022-07-30T08:12:11;19.50;89.80
5226;DHT22;2632;51.666;7.146;2022-07-30T08:14:37;19.60;88.70
5226;DHT22;2632;51.666;7.146;2022-07-30T08:17:04;19.60;90.10
5226;DHT22;2632;51.666;7.146;2022-07-30T08:19:34;19.50;89.30
5226;DHT22;2632;51.666;7.146;2022-07-30T08:22:01;19.40;89.80
5226;DHT22;2632;51.666;7.146;2022-07-30T08:24:28;19.30;90.40
5226;DHT22;2632;51.666;7.146;2022-07-30T08:26:54;19.40;90.20
5226;DHT22;2632;51.666;7.146;2022-07-30T08:29:21;19.60;88.80
5226;DHT22;2632;51.666;7.146;2022-07-30T08:31:48;19.80;88.10
5226;DHT22;2632;51.666;7.146;2022-07-30T08:34:14;19.90;88.60
5226;DHT22;2632;51.666;7.146;2022-07-30T08:36:41;20.00;87.60
5226;DHT22;2632;51.666;7.146;2022-07-30T08:39:08;20.00;88.50
5226;DHT22;2632;51.666;7.146;2022-07-30T08:41:37;19.90;87.70
5226;DHT22;2632;51.666;7.146;2022-07-30T08:44:09;20.00;86.70
5226;DHT22;2632;51.666;7.146;2022-07-30T08:46:42;20.10;86.30
5226;DHT22;2632;51.666;7.146;2022-07-30T08:49:13;20.20;86.10
5226;DHT22;2632;51.666;7.146;2022-07-30T08:51:40;20.20;85.70
5226;DHT22;2632;51.666;7.146;2022-07-30T08:54:07;20.40;85.60
5226;DHT22;2632;51.666;7.146;2022-07-30T08:56:34;20.40;86.40
5226;DHT22;2632;51.666;7.146;2022-07-30T08:59:02;20.40;84.60
5226;DHT22;2632;51.666;7.146;2022-07-30T09:01:29;20.50;84.60
5226;DHT22;2632;51.666;7.146;2022-07-30T09:03:56;20.50;85.80
5226;DHT22;2632;51.666;7.146;2022-07-30T09:06:23;20.70;84.50
5226;DHT22;2632;51.666;7.146;2022-07-30T09:08:50;20.70;85.00
5226;DHT22;2632;51.666;7.146;2022-07-30T09:11:16;20.70;83.10
5226;DHT22;2632;51.666;7.146;2022-07-30T09:13:43;20.70;83.50
5226;DHT22;2632;51.666;7.146;2022-07-30T09:16:22;20.90;84.30
5226;DHT22;2632;51.666;7.146;2022-07-30T09:18:49;20.90;82.10
5226;DHT22;2632;51.666;7.146;2022-07-30T09:21:19;20.90;82.40
5226;DHT22;2632;51.666;7.146;2022-07-30T09:24:03;20.90;83.20
5226;DHT22;2632;51.666;7.146;2022-07-30T09:26:31;21.00;82.70
5226;DHT22;2632;51.666;7.146;2022-07-30T09:29:15;21.10;81.70
5226;DHT22;2632;51.666;7.146;2022-07-30T09:32:11;20.90;81.20
5226;DHT22;2632;51.666;7.146;2022-07-30T09:34:39;20.90;82.20
5226;DHT22;2632;51.666;7.146;2022-07-30T09:39:40;21.30;82.20
5226;DHT22;2632;51.666;7.146;2022-07-30T09:42:18;21.10;81.20
5226;DHT22;2632;51.666;7.146;2022-07-30T09:44:46;21.20;80.90
5226;DHT22;2632;51.666;7.146;2022-07-30T09:47:32;21.40;81.20
5226;DHT22;2632;51.666;7.146;2022-07-30T09:52:34;21.30;80.20
5226;DHT22;2632;51.666;7.146;2022-07-30T09:55:00;21.40;80.90
5226;DHT22;2632;51.666;7.146;2022-07-30T09:57:29;21.30;79.20
5226;DHT22;2632;51.666;7.146;2022-07-30T09:59:57;21.30;80.00
5226;DHT22;2632;51.666;7.146;2022-07-30T10:02:30;21.30;80.20
5226;DHT22;2632;51.666;7.146;2022-07-30T10:05:11;21.20;80.20
5226;DHT22;2632;51.666;7.146;2022-07-30T10:07:48;21.20;80.80
5226;DHT22;2632;51.666;7.146;2022-07-30T10:10:22;21.20;81.30
5226;DHT22;2632;51.666;7.146;2022-07-30T10:12:53;21.30;80.10
5226;DHT22;2632;51.666;7.146;2022-07-30T10:15:23;21.40;79.30
5226;DHT22;2632;51.666;7.146;2022-07-30T10:17:53;21.50;79.60
5226;DHT22;2632;51.666;7.146;2022-07-30T10:20:20;21.40;78.70
5226;DHT22;2632;51.666;7.146;2022-07-30T10:22:48;21.40;79.00
5226;DHT22;2632;51.666;7.146;2022-07-30T10:25:17;21.60;77.80
5226;DHT22;2632;51.666;7.146;2022-07-30T10:27:49;21.70;77.80
5226;DHT22;2632;51.666;7.146;2022-07-30T10:30:23;21.70;78.10
5226;DHT22;2632;51.666;7.146;2022-07-30T10:32:55;21.80;77.30
5226;DHT22;2632;51.666;7.146;2022-07-30T10:35:22;21.80;77.80
5226;DHT22;2632;51.666;7.146;2022-07-30T10:38:10;21.80;77.50
5226;DHT22;2632;51.666;7.146;2022-07-30T10:40:56;21.70;77.60
5226;DHT22;2632;51.666;7.146;2022-07-30T10:44:08;21.90;75.50
5226;DHT22;2632;51.666;7.146;2022-07-30T10:47:16;21.90;76.50
5226;DHT22;2632;51.666;7.146;2022-07-30T10:50:13;21.90;76.00
5226;DHT22;2632;51.666;7.146;2022-07-30T10:55:13;22.30;74.60
5226;DHT22;2632;51.666;7.146;2022-07-30T11:03:27;22.40;74.20
5226;DHT22;2632;51.666;7.146;2022-07-30T11:08:44;22.30;73.80
5226;DHT22;2632;51.666;7.146;2022-07-30T11:14:07;22.20;73.20
5226;DHT22;2632;51.666;7.146;2022-07-30T11:22:24;22.50;72.70
5226;DHT22;2632;51.666;7.146;2022-07-30T11:24:51;22.10;72.90
5226;DHT22;2632;51.666;7.146;2022-07-30T11:30:03;22.00;73.00
5226;DHT22;2632;51.666;7.146;2022-07-30T11:33:20;22.00;73.70
5226;DHT22;2632;51.666;7.146;2022-07-30T11:36:07;22.10;69.90
5226;DHT22;2632;51.666;7.146;2022-07-30T11:38:57;22.50;70.80
5226;DHT22;2632;51.666;7.146;2022-07-30T11:41:32;22.30;70.30
5226;DHT22;2632;51.666;7.146;2022-07-30T11:44:26;22.40;70.90
5226;DHT22;2632;51.666;7.146;2022-07-30T11:46:53;22.30;71.80
5226;DHT22;2632;51.666;7.146;2022-07-30T11:49:19;22.20;72.20
5226;DHT22;2632;51.666;7.146;2022-07-30T11:51:47;22.50;68.00
5226;DHT22;2632;51.666;7.146;2022-07-30T11:54:15;23.20;65.30
5226;DHT22;2632;51.666;7.146;2022-07-30T11:56:53;23.10;68.00
5226;DHT22;2632;51.666;7.146;2022-07-30T11:59:20;22.70;69.20
5226;DHT22;2632;51.666;7.146;2022-07-30T12:01:51;23.20;67.90
5226;DHT22;2632;51.666;7.146;2022-07-30T12:04:18;23.00;66.90
5226;DHT22;2632;51.666;7.146;2022-07-30T12:06:46;23.10;67.60
5226;DHT22;2632;51.666;7.146;2022-07-30T12:09:23;22.90;68.50
5226;DHT22;2632;51.666;7.146;2022-07-30T12:11:53;22.70;68.60
5226;DHT22;2632;51.666;7.146;2022-07-30T12:14:20;23.00;67.00
5226;DHT22;2632;51.666;7.146;2022-07-30T12:16:51;22.90;67.60
5226;DHT22;2632;51.666;7.146;2022-07-30T12:19:19;23.00;67.90
5226;DHT22;2632;51.666;7.146;2022-07-30T12:21:45;22.80;67.90
5226;DHT22;2632;51.666;7.146;2022-07-30T12:24:24;22.90;67.60
5226;DHT22;2632;51.666;7.146;2022-07-30T12:26:51;23.10;67.10
5226;DHT22;2632;51.666;7.146;2022-07-30T12:29:18;23.10;67.00
5226;DHT22;2632;51.666;7.146;2022-07-30T12:31:45;23.20;66.60
5226;DHT22;2632;51.666;7.146;2022-07-30T12:34:23;23.20;66.20
5226;DHT22;2632;51.666;7.146;2022-07-30T12:36:50;23.10;66.10
5226;DHT22;2632;51.666;7.146;2022-07-30T12:39:19;23.20;64.30
5226;DHT22;2632;51.666;7.146;2022-07-30T12:41:48;23.70;62.60
5226;DHT22;2632;51.666;7.146;2022-07-30T12:44:40;23.50;64.20
5226;DHT22;2632;51.666;7.146;2022-07-30T12:47:29;23.50;62.30
5226;DHT22;2632;51.666;7.146;2022-07-30T12:49:58;23.30;65.00
5226;DHT22;2632;51.666;7.146;2022-07-30T12:52:29;23.70;58.00
5226;DHT22;2632;51.666;7.146;2022-07-30T12:57:23;24.50;57.90
5226;DHT22;2632;51.666;7.146;2022-07-30T13:00:06;24.50;57.70
5226;DHT22;2632;51.666;7.146;2022-07-30T13:02:34;24.70;59.10
5226;DHT22;2632;51.666;7.146;2022-07-30T13:05:01;24.80;59.60
5226;DHT22;2632;51.666;7.146;2022-07-30T13:07:54;24.60;59.90
5226;DHT22;2632;51.666;7.146;2022-07-30T13:10:21;24.10;61.40
5226;DHT22;2632;51.666;7.146;2022-07-30T13:12:52;23.90;60.70
5226;DHT22;2632;51.666;7.146;2022-07-30T13:15:20;24.20;60.70
5226;DHT22;2632;51.666;7.146;2022-07-30T13:17:48;23.70;61.50
5226;DHT22;2632;51.666;7.146;2022-07-30T13:20:15;23.70;62.30
5226;DHT22;2632;51.666;7.146;2022-07-30T13:22:43;23.50;59.90
5226;DHT22;2632;51.666;7.146;2022-07-30T13:25:10;23.40;60.40
5226;DHT22;2632;51.666;7.146;2022-07-30T13:27:37;23.30;63.30
5226;DHT22;2632;51.666;7.146;2022-07-30T13:30:05;23.50;62.90
5226;DHT22;2632;51.666;7.146;2022-07-30T13:32:32;23.60;62.40
5226;DHT22;2632;51.666;7.146;2022-07-30T13:34:58;23.40;62.60
5226;DHT22;2632;51.666;7.146;2022-07-30T13:37:27;23.60;61.20
5226;DHT22;2632;51.666;7.146;2022-07-30T13:40:05;23.40;63.00
5226;DHT22;2632;51.666;7.146;2022-07-30T13:42:32;23.30;63.70
5226;DHT22;2632;51.666;7.146;2022-07-30T13:44:58;23.40;63.60
5226;DHT22;2632;51.666;7.146;2022-07-30T13:47:28;23.40;63.90
5226;DHT22;2632;51.666;7.146;2022-07-30T13:49:54;23.80;62.50
5226;DHT22;2632;51.666;7.146;2022-07-30T13:52:21;23.80;64.60
5226;DHT22;2632;51.666;7.146;2022-07-30T13:54:47;24.10;63.30
5226;DHT22;2632;51.666;7.146;2022-07-30T13:57:16;24.00;63.00
5226;DHT22;2632;51.666;7.146;2022-07-30T13:59:43;23.80;62.60
5226;DHT22;2632;51.666;7.146;2022-07-30T14:02:10;23.70;63.40
5226;DHT22;2632;51.666;7.146;2022-07-30T14:04:36;23.30;64.30
5226;DHT22;2632;51.666;7.146;2022-07-30T14:07:03;23.70;62.10
5226;DHT22;2632;51.666;7.146;2022-07-30T14:09:30;23.60;63.50
5226;DHT22;2632;51.666;7.146;2022-07-30T14:11:57;23.40;63.60
5226;DHT22;2632;51.666;7.146;2022-07-30T14:14:23;23.10;64.00
5226;DHT22;2632;51.666;7.146;2022-07-30T14:16:50;24.30;59.50
5226;DHT22;2632;51.666;7.146;2022-07-30T14:19:19;24.30;60.50
5226;DHT22;2632;51.666;7.146;2022-07-30T14:21:51;24.40;60.80
5226;DHT22;2632;51.666;7.146;2022-07-30T14:24:19;24.10;61.30
5226;DHT22;2632;51.666;7.146;2022-07-30T14:26:46;24.10;61.90
5226;DHT22;2632;51.666;7.146;2022-07-30T14:29:13;24.00;61.70
5226;DHT22;2632;51.666;7.146;2022-07-30T14:31:39;24.10;60.10
5226;DHT22;2632;51.666;7.146;2022-07-30T14:34:06;24.40;61.50
5226;DHT22;2632;51.666;7.146;2022-07-30T14:36:33;24.30;61.10
5226;DHT22;2632;51.666;7.146;2022-07-30T14:39:00;24.10;62.00
5226;DHT22;2632;51.666;7.146;2022-07-30T14:41:30;24.30;58.50
5226;DHT22;2632;51.666;7.146;2022-07-30T14:43:57;24.50;59.60
5226;DHT22;2632;51.666;7.146;2022-07-30T14:46:23;24.50;59.80
5226;DHT22;2632;51.666;7.146;2022-07-30T14:48:50;24.20;60.90
5226;DHT22;2632;51.666;7.146;2022-07-30T14:51:16;24.20;58.90
5226;DHT22;2632;51.666;7.146;2022-07-30T14:53:51;24.60;57.00
5226;DHT22;2632;51.666;7.146;2022-07-30T14:56:18;24.60;58.20
5226;DHT22;2632;51.666;7.146;2022-07-30T14:58:45;24.40;60.30
5226;DHT22;2632;51.666;7.146;2022-07-30T15:01:11;24.30;60.60
5226;DHT22;2632;51.666;7.146;2022-07-30T15:03:43;23.90;60.80
5226;DHT22;2632;51.666;7.146;2022-07-30T15:06:13;24.20;58.00
5226;DHT22;2632;51.666;7.146;2022-07-30T15:08:41;24.90;56.00
5226;DHT22;2632;51.666;7.146;2022-07-30T15:11:09;24.70;59.10
5226;DHT22;2632;51.666;7.146;2022-07-30T15:13:35;24.30;58.80
5226;DHT22;2632;51.666;7.146;2022-07-30T15:16:16;24.20;58.80
5226;DHT22;2632;51.666;7.146;2022-07-30T15:18:43;23.80;60.20
5226;DHT22;2632;51.666;7.146;2022-07-30T15:21:10;23.50;61.20
5226;DHT22;2632;51.666;7.146;2022-07-30T15:23:40;23.60;60.90
5226;DHT22;2632;51.666;7.146;2022-07-30T15:26:07;24.00;59.30
5226;DHT22;2632;51.666;7.146;2022-07-30T15:28:34;24.00;56.60
5226;DHT22;2632;51.666;7.146;2022-07-30T15:31:00;23.80;59.90
5226;DHT22;2632;51.666;7.146;2022-07-30T15:33:28;23.60;60.80
5226;DHT22;2632;51.666;7.146;2022-07-30T15:35:54;23.70;59.70
5226;DHT22;2632;51.666;7.146;2022-07-30T15:38:21;23.90;60.40
5226;DHT22;2632;51.666;7.146;2022-07-30T15:40:48;23.80;61.20
5226;DHT22;2632;51.666;7.146;2022-07-30T15:43:15;23.70;60.60
5226;DHT22;2632;51.666;7.146;2022-07-30T15:45:42;23.60;60.10
5226;DHT22;2632;51.666;7.146;2022-07-30T15:48:22;23.40;61.90
5226;DHT22;2632;51.666;7.146;2022-07-30T15:50:56;23.30;62.20
5226;DHT22;2632;51.666;7.146;2022-07-30T15:53:24;23.30;62.30
5226;DHT22;2632;51.666;7.146;2022-07-30T15:55:51;23.20;63.30
5226;DHT22;2632;51.666;7.146;2022-07-30T15:58:18;23.20;62.90
5226;DHT22;2632;51.666;7.146;2022-07-30T16:00:44;23.30;62.80
5226;DHT22;2632;51.666;7.146;2022-07-30T16:03:11;23.30;62.60
5226;DHT22;2632;51.666;7.146;2022-07-30T16:05:38;23.40;62.40
5226;DHT22;2632;51.666;7.146;2022-07-30T16:08:21;23.40;62.90
5226;DHT22;2632;51.666;7.146;2022-07-30T16:10:48;23.60;61.70
5226;DHT22;2632;51.666;7.146;2022-07-30T16:13:15;23.70;62.80
5226;DHT22;2632;51.666;7.146;2022-07-30T16:15:41;23.40;62.80
5226;DHT22;2632;51.666;7.146;2022-07-30T16:18:08;23.30;63.00
5226;DHT22;2632;51.666;7.146;2022-07-30T16:20:35;23.20;63.60
5226;DHT22;2632;51.666;7.146;2022-07-30T16:23:02;23.20;63.00
5226;DHT22;2632;51.666;7.146;2022-07-30T16:25:28;23.10;63.90
5226;DHT22;2632;51.666;7.146;2022-07-30T16:27:55;23.30;63.30
5226;DHT22;2632;51.666;7.146;2022-07-30T16:30:23;23.10;62.80
5226;DHT22;2632;51.666;7.146;2022-07-30T16:32:53;23.10;63.90
5226;DHT22;2632;51.666;7.146;2022-07-30T16:35:22;23.20;62.20
5226;DHT22;2632;51.666;7.146;2022-07-30T16:37:49;23.40;62.80
5226;DHT22;2632;51.666;7.146;2022-07-30T16:40:16;23.30;61.90
5226;DHT22;2632;51.666;7.146;2022-07-30T16:42:43;23.40;63.00
5226;DHT22;2632;51.666;7.146;2022-07-30T16:45:09;23.40;62.90
5226;DHT22;2632;51.666;7.146;2022-07-30T16:47:36;23.60;62.30
5226;DHT22;2632;51.666;7.146;2022-07-30T16:50:04;23.60;61.60
5226;DHT22;2632;51.666;7.146;2022-07-30T16:52:30;23.30;63.40
5226;DHT22;2632;51.666;7.146;2022-07-30T16:54:57;23.20;63.70
5226;DHT22;2632;51.666;7.146;2022-07-30T16:57:24;23.20;63.80
5226;DHT22;2632;51.666;7.146;2022-07-30T16:59:50;23.10;63.50
5226;DHT22;2632;51.666;7.146;2022-07-30T17:02:17;23.10;64.20
5226;DHT22;2632;51.666;7.146;2022-07-30T17:04:44;23.10;64.20